Princimar Pride — V7XL5 — position and weather

sailwx.info

Track history (hours):
 
Tides and Currents Weather Stations Pressure Air Temp Water Temp Dewpoint Dewpoint Depression Visibility Wind Speed Wind Dir Waves Ship Positions

Princimar Pride

Last reported at 2015-May-18 16:33 UTC. Time now 2015-May-28 20:17 UTC.
Position N 30°38' W 012°44'.
Warning: this ship's position is 10 days out of date.

Length 274 m; draft 9 m.

Type: Ship. MMSI: 538004509.

Date/timePositionNaut miles runAvg speedWind from/ knotsBaromVisibWave heightAir tempDewpointWater temp
2015-May-18 16:33N 30°38' W 012°44'47814.0
2015-May-17 06:27N 35°57' W 005°38'1112.7
2015-May-17 05:33N 36°01' W 005°25'1413.7
2015-May-17 04:33N 36°04' W 005°09'21313.2
2015-May-16 12:31N 37°26' W 001°04'  
2015-May-14 05:34N 37°34' W 000°58'2 1.8
2015-May-14 04:33N 37°33' W 001°00'3 3.2
2015-May-14 03:33N 37°30' W 001°01'7 7.3
2015-May-14 02:32N 37°24' W 001°07'2 2.0
2015-May-14 01:26N 37°22' W 001°06'0 0.3
2015-May-14 00:20N 37°22' W 001°06'0 0.3
2015-May-13 23:26N 37°22' W 001°05'0 0.4
2015-May-13 22:32N 37°23' W 001°05'1 0.5
2015-May-13 21:26N 37°23' W 001°05'0 0.5
2015-May-13 20:32N 37°23' W 001°05'2 1.9
2015-May-13 19:17N 37°25' W 001°06'6 8.7
2015-May-13 18:33N 37°20' W 001°11'1312.8
2015-May-13 17:33N 37°08' W 001°18'1313.0
2015-May-13 16:33N 36°57' W 001°25'1313.2
2015-May-13 15:33N 36°45' W 001°33'1312.9
2015-May-13 14:33N 36°34' W 001°41'1212.2
2015-May-13 13:34N 36°26' W 001°52'1313.0
2015-May-13 12:34N 36°23' W 002°08'1313.2
2015-May-13 11:33N 36°21' W 002°24'1313.0
2015-May-13 10:33N 36°19' W 002°40'1313.0
2015-May-13 09:33N 36°16' W 002°56'1313.0
2015-May-13 08:33N 36°15' W 003°12'1312.9
2015-May-13 07:33N 36°13' W 003°28'1512.6
2015-May-13 06:23N 36°11' W 003°46'7014.1
2015-May-13 01:24N 36°01' W 005°12'1214.1
2015-May-13 00:33N 35°58' W 005°26'5613.1
2015-May-12 20:17N 35°53' W 006°35'1012.1
2015-May-12 19:27N 35°53' W 006°47'1111.8
2015-May-12 18:33N 35°56' W 006°60'1312.8
2015-May-12 17:33N 35°56' W 007°16'1313.0
2015-May-12 16:33N 35°57' W 007°32'1312.9
2015-May-12 15:33N 35°57' W 007°48'1312.8
2015-May-12 14:33N 35°58' W 008°04'1312.8
2015-May-12 13:33N 35°59' W 008°19'1312.8
2015-May-12 12:33N 35°60' W 008°35'1313.0
2015-May-12 11:33N 36°00' W 008°51'1313.0
2015-May-12 10:33N 36°01' W 009°07'1312.9
2015-May-12 09:33N 36°02' W 009°23'1313.0
2015-May-12 08:33N 36°03' W 009°39'1313.1
2015-May-12 07:33N 36°04' W 009°55'1313.2
2015-May-12 06:33N 36°04' W 010°12'1313.2
2015-May-12 05:33N 36°05' W 010°28'1313.1
2015-May-12 04:33N 36°05' W 010°44'1313.3
2015-May-12 03:33N 36°06' W 011°01'1313.3
2015-May-12 02:33N 36°06' W 011°17'1413.5
2015-May-12 01:33N 36°07' W 011°34'1313.0
2015-May-12 00:33N 36°07' W 011°50'1312.7
2015-May-11 23:33N 36°08' W 012°06'1612.5
2015-May-11 22:19N 36°08' W 012°25'11312.8
2015-May-11 13:33N 36°11' W 014°44'14012.8
2015-May-11 02:33N 36°15' W 017°38'29313.1
2015-May-10 04:08N 36°24' W 023°42'712.7
2015-May-10 03:33N 36°24' W 023°51'1312.7
2015-May-10 02:33N 36°25' W 024°07'1312.7
2015-May-10 01:33N 36°25' W 024°22'1312.6
2015-May-10 00:33N 36°25' W 024°38'1212.4
2015-May-09 23:33N 36°26' W 024°53'1212.2
2015-May-09 22:33N 36°26' W 025°08'1212.5
2015-May-09 21:33N 36°26' W 025°24'1312.5
2015-May-09 20:33N 36°26' W 025°40'1312.6
2015-May-09 19:33N 36°26' W 025°55'1312.9
2015-May-09 18:33N 36°26' W 026°11'1312.5
2015-May-09 17:33N 36°26' W 026°27'1312.7
2015-May-09 16:31N 36°26' W 026°43'11312.6
2015-May-09 07:30N 36°26' W 029°04'1312.9
2015-May-09 06:32N 36°25' W 029°20'8313.1
2015-May-09 00:12N 36°25' W 031°02'  
Track history (hours):
 
Tides and Currents Weather Stations Pressure Air Temp Water Temp Dewpoint Dewpoint Depression Visibility Wind Speed Wind Dir Waves Ship Positions

Princimar Pride

Last reported at 2015-May-18 16:33 UTC. Time now 2015-May-28 20:17 UTC.
Position N 30°38' W 012°44'.
Warning: this ship's position is 10 days out of date.

Length 274 m; draft 9 m.

Type: Ship. MMSI: 538004509.

Date/timePositionNaut miles runAvg speedWind from/ knotsBaromVisibWave heightAir tempDewpointWater temp
2015-May-18 16:33N 30°38' W 012°44'47814.0
2015-May-17 06:27N 35°57' W 005°38'1112.7
2015-May-17 05:33N 36°01' W 005°25'1413.7
2015-May-17 04:33N 36°04' W 005°09'21313.2
2015-May-16 12:31N 37°26' W 001°04'  
2015-May-14 05:34N 37°34' W 000°58'2 1.8
2015-May-14 04:33N 37°33' W 001°00'3 3.2
2015-May-14 03:33N 37°30' W 001°01'7 7.3
2015-May-14 02:32N 37°24' W 001°07'2 2.0
2015-May-14 01:26N 37°22' W 001°06'0 0.3
2015-May-14 00:20N 37°22' W 001°06'0 0.3
2015-May-13 23:26N 37°22' W 001°05'0 0.4
2015-May-13 22:32N 37°23' W 001°05'1 0.5
2015-May-13 21:26N 37°23' W 001°05'0 0.5
2015-May-13 20:32N 37°23' W 001°05'2 1.9
2015-May-13 19:17N 37°25' W 001°06'6 8.7
2015-May-13 18:33N 37°20' W 001°11'1312.8
2015-May-13 17:33N 37°08' W 001°18'1313.0
2015-May-13 16:33N 36°57' W 001°25'1313.2
2015-May-13 15:33N 36°45' W 001°33'1312.9
2015-May-13 14:33N 36°34' W 001°41'1212.2
2015-May-13 13:34N 36°26' W 001°52'1313.0
2015-May-13 12:34N 36°23' W 002°08'1313.2
2015-May-13 11:33N 36°21' W 002°24'1313.0
2015-May-13 10:33N 36°19' W 002°40'1313.0
2015-May-13 09:33N 36°16' W 002°56'1313.0
2015-May-13 08:33N 36°15' W 003°12'1312.9
2015-May-13 07:33N 36°13' W 003°28'1512.6
2015-May-13 06:23N 36°11' W 003°46'7014.1
2015-May-13 01:24N 36°01' W 005°12'1214.1
2015-May-13 00:33N 35°58' W 005°26'5613.1
2015-May-12 20:17N 35°53' W 006°35'1012.1
2015-May-12 19:27N 35°53' W 006°47'1111.8
2015-May-12 18:33N 35°56' W 006°60'1312.8
2015-May-12 17:33N 35°56' W 007°16'1313.0
2015-May-12 16:33N 35°57' W 007°32'1312.9
2015-May-12 15:33N 35°57' W 007°48'1312.8
2015-May-12 14:33N 35°58' W 008°04'1312.8
2015-May-12 13:33N 35°59' W 008°19'1312.8
2015-May-12 12:33N 35°60' W 008°35'1313.0
2015-May-12 11:33N 36°00' W 008°51'1313.0
2015-May-12 10:33N 36°01' W 009°07'1312.9
2015-May-12 09:33N 36°02' W 009°23'1313.0
2015-May-12 08:33N 36°03' W 009°39'1313.1
2015-May-12 07:33N 36°04' W 009°55'1313.2
2015-May-12 06:33N 36°04' W 010°12'1313.2
2015-May-12 05:33N 36°05' W 010°28'1313.1
2015-May-12 04:33N 36°05' W 010°44'1313.3
2015-May-12 03:33N 36°06' W 011°01'1313.3
2015-May-12 02:33N 36°06' W 011°17'1413.5
2015-May-12 01:33N 36°07' W 011°34'1313.0
2015-May-12 00:33N 36°07' W 011°50'1312.7
2015-May-11 23:33N 36°08' W 012°06'1612.5
2015-May-11 22:19N 36°08' W 012°25'11312.8
2015-May-11 13:33N 36°11' W 014°44'14012.8
2015-May-11 02:33N 36°15' W 017°38'29313.1
2015-May-10 04:08N 36°24' W 023°42'712.7
2015-May-10 03:33N 36°24' W 023°51'1312.7
2015-May-10 02:33N 36°25' W 024°07'1312.7
2015-May-10 01:33N 36°25' W 024°22'1312.6
2015-May-10 00:33N 36°25' W 024°38'1212.4
2015-May-09 23:33N 36°26' W 024°53'1212.2
2015-May-09 22:33N 36°26' W 025°08'1212.5
2015-May-09 21:33N 36°26' W 025°24'1312.5
2015-May-09 20:33N 36°26' W 025°40'1312.6
2015-May-09 19:33N 36°26' W 025°55'1312.9
2015-May-09 18:33N 36°26' W 026°11'1312.5
2015-May-09 17:33N 36°26' W 026°27'1312.7
2015-May-09 16:31N 36°26' W 026°43'11312.6
2015-May-09 07:30N 36°26' W 029°04'1312.9
2015-May-09 06:32N 36°25' W 029°20'8313.1
2015-May-09 00:12N 36°25' W 031°02'  

Dump ship's entire track history